• Join FlightAware (Why Join?)
  • Login
  • US Flag 
08:34PM EDT


 

Airport Tracker/Info


-or-


 

Live Flight TrackerFlight Track Log ✈ UAL1519 ✈ 27-Apr-2013 ✈ KEWR - TIST / STT

Flight Track Log - Related Links

Times and Time Zones

All times are in EDT time to prevent confusion due to time zone crossing. See the UAL1519 flight status page for this flight to view local times or setup timezone preferences in your user account.

Time Position Orientation Groundspeed Altitude Reporting Facility
EDT Latitude Longitude Course Direction KTS MPH feet Rate Location/Type
09:58AM 40.7167 -74.1333 123° Southeast 183 211 2,000  Level New York TRACON
09:59AM 40.7667 -74.0833 37° Northeast 242 278 3,000 1,380 Climbing New York TRACON
10:00AM 40.7833 -74.1500 288° West 271 312 4,800 2,400 Climbing New York TRACON
10:01AM 40.2084 -74.1500 180° South  Level FlightAware Approximate
10:01AM 40.7167 -74.2000 210° Southwest 287 330 7,900  Level New York TRACON
10:02AM 40.0833 -74.1453 90° East  Level FlightAware Approximate
10:02AM 40.6333 -74.2333 197° South 298 343 10,900  Level New York TRACON
10:03AM 40.0398 -73.9964 123° Southeast  Level FlightAware Approximate
10:04AM 40.4653 -74.2219 177° South 352 405 13,200  Level New York Center
10:05AM 40.3492 -74.2025 173° South 377 434 15,300 1,500 Climbing New York Center
10:06AM 40.2411 -74.1889 175° South 388 447 16,300 1,200 Climbing New York Center
10:07AM 40.1358 -74.1592 168° South 388 447 17,800 1,920 Climbing New York Center
10:08AM 40.0872 -74.0319 117° Southeast 360 414 20,200 2,340 Climbing New York Center
10:09AM 40.0561 -73.8814 105° East 381 438 22,500 1,320 Climbing New York Center
10:10AM 40.0283 -73.7472 105° East 405 466 22,900 180 Climbing New York Center
10:11AM 39.9886 -73.5803 107° East 424 488 22,900  Level New York Center
10:12AM 39.9583 -73.4439 106° East 430 495 23,000  Climbing New York Center
10:13AM 39.9261 -73.2964 106° East 430 495 23,000 -60 Level New York Center
10:14AM 39.8919 -73.1464 106° East 430 495 22,900  Descending New York Center
10:15AM 39.8594 -72.9964 106° East 425 489 23,000  Climbing New York Center
10:16AM 39.8225 -72.8439 107° East 425 489 23,000  Level New York Center
10:17AM 39.7731 -72.7047 115° Southeast 425 489 23,000 660 Level New York Center
10:18AM 39.6894 -72.5864 133° Southeast 430 495 24,400 1,620 Climbing New York Center
10:19AM 39.5953 -72.4681 136° Southeast 446 513 26,200 1,680 Climbing New York Center
10:20AM 39.5011 -72.3528 137° Southeast 462 532 27,900 1,560 Climbing New York Center
10:21AM 39.4006 -72.2350 138° Southeast 483 556 29,400 1,560 Climbing New York Center
10:22AM 39.3019 -72.1147 137° Southeast 489 563 31,100 1,380 Climbing New York Center
10:23AM 39.1989 -71.9922 137° Southeast 494 568 32,200 1,140 Climbing New York Center
10:24AM 39.0981 -71.8700 137° Southeast 494 568 33,400 1,200 Climbing New York Center
10:25AM 38.9928 -71.7481 138° Southeast 494 568 34,600 1,440 Climbing New York Center
10:26AM 38.8875 -71.6161 136° Southeast 505 581 36,300 1,140 Climbing New York Center
10:27AM 38.7842 -71.5028 139° Southeast 510 587 37,000 300 Climbing New York Center
10:28AM 38.6847 -71.3767 135° Southeast 505 581 37,000 -60 Level New York Center
10:29AM 38.5833 -71.2536 136° Southeast 505 581 36,900 -60 Descending New York Center
10:30AM 38.4814 -71.1389 139° Southeast 500 575 36,900  Level New York Center
10:31AM 38.3817 -71.0164 136° Southeast 495 570 37,000  Climbing New York Center
10:32AM 38.2736 -70.9047 141° Southeast 495 570 37,000  Level New York Center
10:33AM 38.1694 -70.7964 141° Southeast 495 570 37,000  Level New York Center
10:34AM 38.0733 -70.6669 133° Southeast 495 570 37,000 -60 Level New York Center
10:35AM 37.9628 -70.5642 144° Southeast 495 570 36,900  Descending New York Center
10:36AM 38.0000 -70.5833 153° Southeast 490 564 37,000 60 Climbing New York Oceanic (ODAPS)
10:36AM 37.8458 -70.4803 153° Southeast 489 563 37,000 -120 Level New York Center
10:37AM 37.7206 -70.4203 159° South 477 549 36,900  Descending New York Center
10:39AM 37.5883 -70.3097 155° Southeast  Level FlightAware Approximate
10:46AM 36.7770 -69.8276 154° Southeast  Level FlightAware Approximate
10:47AM 36.6622 -69.7565 154° Southeast  Level FlightAware Approximate
10:48AM 36.5473 -69.6855 154° Southeast  Level FlightAware Approximate
10:49AM 36.4318 -69.6163 154° Southeast  Level FlightAware Approximate
10:50AM 36.3160 -69.5478 155° Southeast  Level FlightAware Approximate
10:51AM 36.2002 -69.4795 155° Southeast  Level FlightAware Approximate
10:51AM 36.1667 -69.4500 168° South 472 543 37,000  Level New York Oceanic (ODAPS)
10:52AM 36.0790 -69.4305 167° South  Level FlightAware Approximate
10:53AM 35.9538 -69.3961 167° South  Level FlightAware Approximate
10:54AM 35.8287 -69.3619 167° South  Level FlightAware Approximate
10:55AM 35.7034 -69.3278 168° South  Level FlightAware Approximate
10:56AM 35.5782 -69.2937 168° South  Level FlightAware Approximate
10:57AM 35.4530 -69.2598 168° South  Level FlightAware Approximate
10:58AM 35.1371 -69.1751 168° South 472 543 37,000  Level FlightAware Transoceanic
10:59AM 35.0083 -69.1413 168° South 472 543 37,000  Level FlightAware Transoceanic
11:00AM 34.8796 -69.1075 168° South 472 543 37,000  Level FlightAware Transoceanic
11:01AM 34.7508 -69.0739 168° South 472 543 37,000  Level FlightAware Transoceanic
11:02AM 34.6221 -69.0403 168° South 472 543 37,000  Level FlightAware Transoceanic
11:03AM 34.4933 -69.0069 168° South 472 543 37,000  Level FlightAware Transoceanic
11:04AM 34.3645 -68.9735 168° South 472 543 37,000  Level FlightAware Transoceanic
11:05AM 34.2357 -68.9403 168° South 472 543 37,000  Level FlightAware Transoceanic
11:06AM 34.1069 -68.9071 168° South 472 543 37,000  Level FlightAware Transoceanic
11:07AM 33.9781 -68.8741 168° South 472 543 37,000  Level FlightAware Transoceanic
11:08AM 33.8492 -68.8412 168° South 472 543 37,000  Level FlightAware Transoceanic
11:09AM 33.7204 -68.8083 168° South 472 543 37,000  Level FlightAware Transoceanic
11:10AM 33.5916 -68.7756 168° South 472 543 37,000  Level FlightAware Transoceanic
11:11AM 33.4627 -68.7429 168° South 472 543 37,000  Level FlightAware Transoceanic
11:12AM 33.3339 -68.7104 168° South 472 543 37,000  Level FlightAware Transoceanic
11:13AM 33.2050 -68.6779 168° South 472 543 37,000  Level FlightAware Transoceanic
11:14AM 33.0761 -68.6456 168° South 472 543 37,000  Level FlightAware Transoceanic
11:15AM 32.9472 -68.6133 168° South 472 543 37,000  Level FlightAware Transoceanic
11:16AM 32.8183 -68.5812 168° South 472 543 37,000  Level FlightAware Transoceanic
11:17AM 32.6894 -68.5491 168° South 472 543 37,000  Level FlightAware Transoceanic
11:18AM 32.5605 -68.5171 168° South 472 543 37,000  Level FlightAware Transoceanic
11:19AM 32.4316 -68.4852 168° South 472 543 37,000  Level FlightAware Transoceanic
11:20AM 32.3027 -68.4534 168° South 472 543 37,000  Level FlightAware Transoceanic
11:21AM 32.1738 -68.4217 168° South 472 543 37,000  Level FlightAware Transoceanic
11:22AM 32.0448 -68.3901 168° South 472 543 37,000  Level FlightAware Transoceanic
11:23AM 31.9159 -68.3586 168° South 472 543 37,000  Level FlightAware Transoceanic
11:24AM 31.7869 -68.3271 168° South 472 543 37,000  Level FlightAware Transoceanic
11:25AM 31.6579 -68.2958 168° South 472 543 37,000  Level FlightAware Transoceanic
11:26AM 31.5290 -68.2645 168° South 472 543 37,000  Level FlightAware Transoceanic
11:27AM 31.4000 -68.2333 168° South 472 543 37,000  Level FlightAware Transoceanic
11:28AM 31.2701 -68.2021 168° South 472 543 37,000  Level FlightAware Transoceanic
11:29AM 31.1403 -68.1709 168° South 472 543 37,000  Level FlightAware Transoceanic
11:30AM 31.0104 -68.1398 168° South 472 543 37,000  Level FlightAware Transoceanic
11:31AM 30.8805 -68.1088 168° South 472 543 37,000  Level FlightAware Transoceanic
11:32AM 30.7506 -68.0779 168° South 472 543 37,000  Level FlightAware Transoceanic
11:33AM 30.6207 -68.0470 168° South 472 543 37,000  Level FlightAware Transoceanic
11:34AM 30.4908 -68.0162 168° South 472 543 37,000  Level FlightAware Transoceanic
11:35AM 30.3608 -67.9856 168° South 472 543 37,000  Level FlightAware Transoceanic
11:35AM 31.4000 -68.2333 168° South 478 550 37,000  Level New York Oceanic (ODAPS)
11:36AM 30.2309 -67.9550 169° South 472 543 37,000  Level FlightAware Transoceanic
11:37AM 30.1010 -67.9245 169° South 472 543 37,000  Level FlightAware Transoceanic
11:38AM 29.9711 -67.8940 169° South 472 543 37,000  Level FlightAware Transoceanic
11:39AM 29.8411 -67.8637 169° South 472 543 37,000  Level FlightAware Transoceanic
11:40AM 29.7111 -67.8334 169° South 472 543 37,000  Level FlightAware Transoceanic
11:41AM 29.4779 -67.7792 169° South 478 550 37,000  Level FlightAware Transoceanic
11:42AM 29.3497 -67.7496 169° South 478 550 37,000  Level FlightAware Transoceanic
11:43AM 29.2215 -67.7200 169° South 478 550 37,000  Level FlightAware Transoceanic
11:44AM 29.0933 -67.6905 169° South 478 550 37,000  Level FlightAware Transoceanic
11:45AM 28.9651 -67.6611 169° South 478 550 37,000  Level FlightAware Transoceanic
11:46AM 28.8369 -67.6317 169° South 478 550 37,000  Level FlightAware Transoceanic
11:47AM 28.7087 -67.6024 169° South 478 550 37,000  Level FlightAware Transoceanic
11:48AM 28.5804 -67.5732 169° South 478 550 37,000  Level FlightAware Transoceanic
11:49AM 28.4522 -67.5441 169° South 478 550 37,000  Level FlightAware Transoceanic
11:50AM 28.3240 -67.5150 169° South 478 550 37,000  Level FlightAware Transoceanic
11:51AM 28.1957 -67.4860 169° South 478 550 37,000  Level FlightAware Transoceanic
11:52AM 28.0674 -67.4571 169° South 478 550 37,000  Level FlightAware Transoceanic
11:53AM 27.9392 -67.4282 169° South 478 550 37,000  Level FlightAware Transoceanic
11:54AM 27.8109 -67.3994 169° South 478 550 37,000  Level FlightAware Transoceanic
11:55AM 27.6826 -67.3707 169° South 478 550 37,000  Level FlightAware Transoceanic
11:56AM 27.5544 -67.3420 169° South 478 550 37,000  Level FlightAware Transoceanic
11:57AM 27.4261 -67.3135 169° South 478 550 37,000  Level FlightAware Transoceanic
11:58AM 27.2978 -67.2849 169° South 478 550 37,000  Level FlightAware Transoceanic
11:59AM 27.1695 -67.2565 169° South 478 550 37,000  Level FlightAware Transoceanic
12:00PM 27.0412 -67.2281 169° South 478 550 37,000  Level FlightAware Transoceanic
12:01PM 26.9129 -67.1998 169° South 478 550 37,000  Level FlightAware Transoceanic
12:02PM 26.7846 -67.1715 169° South 478 550 37,000  Level FlightAware Transoceanic
12:02PM 27.0833 -67.2500 169° South 506 582 37,000  Level New York Oceanic (ODAPS)
12:03PM 26.6562 -67.1433 169° South 478 550 37,000  Level FlightAware Transoceanic
12:04PM 26.5279 -67.1152 169° South 478 550 37,000  Level FlightAware Transoceanic
12:05PM 26.3996 -67.0871 169° South 478 550 37,000  Level FlightAware Transoceanic
12:06PM 26.2712 -67.0591 169° South 478 550 37,000  Level FlightAware Transoceanic
12:07PM 26.1429 -67.0311 169° South 478 550 37,000  Level FlightAware Transoceanic
12:08PM 26.1285 -67.0381 169° South 506 582 37,000  Level FlightAware Transoceanic
12:09PM 25.9921 -67.0081 169° South 506 582 37,000  Level FlightAware Transoceanic
12:10PM 25.8557 -66.9782 169° South 506 582 37,000  Level FlightAware Transoceanic
12:11PM 25.7192 -66.9484 169° South 506 582 37,000  Level FlightAware Transoceanic
12:12PM 25.5828 -66.9186 169° South 506 582 37,000  Level FlightAware Transoceanic
12:13PM 25.4464 -66.8889 169° South 506 582 37,000  Level FlightAware Transoceanic
12:14PM 25.3099 -66.8593 169° South 506 582 37,000  Level FlightAware Transoceanic
12:15PM 25.1734 -66.8297 169° South 506 582 37,000  Level FlightAware Transoceanic
12:16PM 25.0370 -66.8002 169° South 506 582 37,000  Level FlightAware Transoceanic
12:17PM 24.9005 -66.7707 169° South 506 582 37,000  Level FlightAware Transoceanic
12:18PM 24.7640 -66.7414 169° South 506 582 37,000  Level FlightAware Transoceanic
12:19PM 24.6275 -66.7121 169° South 506 582 37,000  Level FlightAware Transoceanic
12:20PM 24.4911 -66.6828 169° South 506 582 37,000  Level FlightAware Transoceanic
12:21PM 24.3546 -66.6536 169° South 506 582 37,000  Level FlightAware Transoceanic
12:22PM 24.2181 -66.6245 169° South 506 582 37,000  Level FlightAware Transoceanic
12:23PM 24.0816 -66.5954 169° South 506 582 37,000  Level FlightAware Transoceanic
12:24PM 23.9450 -66.5664 169° South 506 582 37,000  Level FlightAware Transoceanic
12:25PM 23.8085 -66.5375 169° South 506 582 37,000  Level FlightAware Transoceanic
12:26PM 23.6720 -66.5086 169° South 506 582 37,000  Level FlightAware Transoceanic
12:27PM 23.5355 -66.4798 169° South 506 582 37,000  Level FlightAware Transoceanic
12:28PM 23.3989 -66.4510 169° South 506 582 37,000  Level FlightAware Transoceanic
12:29PM 23.2624 -66.4223 169° South 506 582 37,000  Level FlightAware Transoceanic
12:30PM 23.1259 -66.3937 169° South 506 582 37,000  Level FlightAware Transoceanic
12:31PM 22.9893 -66.3651 169° South 506 582 37,000  Level FlightAware Transoceanic
12:32PM 22.8528 -66.3366 169° South 506 582 37,000  Level FlightAware Transoceanic
12:33PM 22.7162 -66.3082 169° South 506 582 37,000  Level FlightAware Transoceanic
12:34PM 22.5796 -66.2797 169° South 506 582 37,000  Level FlightAware Transoceanic
12:35PM 22.4431 -66.2514 169° South 506 582 37,000  Level FlightAware Transoceanic
12:35PM 22.9167 -66.3500 169° South 465 535 37,000  Level New York Oceanic (ODAPS)
12:36PM 22.3065 -66.2231 169° South 506 582 37,000  Level FlightAware Transoceanic
12:37PM 22.1699 -66.1948 169° South 506 582 37,000  Level FlightAware Transoceanic
12:37PM 22.2667 -66.2167 169° South 460 529 37,000  Level San Juan Center
12:38PM 22.0333 -66.1667 169° South 506 582 37,000  Level FlightAware Transoceanic
12:38PM 22.1333 -66.1833 167° South 460 529 37,000  Level San Juan Center
12:39PM 21.9200 -66.1433 169° South 506 582 37,000  Level FlightAware Transoceanic
12:39PM 22.0167 -66.1500 165° South 460 529 37,000  Level San Juan Center
12:40PM 21.8067 -66.1199 169° South 506 582 37,000  Level FlightAware Transoceanic
12:40PM 21.8833 -66.1333 173° South 460 529 37,000  Level San Juan Center
12:41PM 21.8067 -66.1199 169° South 465 535 37,000  Level FlightAware Transoceanic
12:41PM 21.7500 -66.1000 167° South 460 529 37,000  Level San Juan Center
12:42PM 21.6933 -66.0966 169° South 465 535 37,000  Level FlightAware Transoceanic
12:42PM 21.6333 -66.0833 172° South 460 529 37,000  Level San Juan Center
12:43PM 21.5000 -66.0500 167° South 460 529 37,000  Level San Juan Center
12:44PM 21.3833 -66.0167 165° South 450 518 37,000  Level San Juan Center
12:45PM 21.2833 -65.9833 163° South 460 529 37,000  Level San Juan Center
12:46PM 21.1333 -65.9500 168° South 460 529 37,000  Level San Juan Center
12:47PM 21.0000 -65.9167 167° South 460 529 37,000  Level San Juan Center
12:48PM 20.8833 -65.8833 165° South 460 529 37,000  Level San Juan Center
12:49PM 20.7500 -65.8667 173° South 460 529 37,000  Level San Juan Center
12:50PM 20.6167 -65.8333 167° South 460 529 37,000  Level San Juan Center
12:51PM 20.5000 -65.8000 165° South 460 529 37,000  Level San Juan Center
12:52PM 20.3667 -65.7667 167° South 470 541 37,000 -180 Level San Juan Center
12:53PM 20.2500 -65.7333 165° South 470 541 36,700 -600 Descending San Juan Center
12:54PM 20.1167 -65.7000 167° South 470 541 35,800 -1,200 Descending San Juan Center
12:55PM 19.9833 -65.6667 167° South 480 552 34,300 -2,400 Descending San Juan Center
12:56PM 19.8500 -65.6333 167° South 480 552 31,000 -3,360 Descending San Juan Center
12:57PM 19.7167 -65.6167 173° South 480 552 27,600 -2,940 Descending San Juan Center
12:58PM 19.6000 -65.5833 165° South 460 529 25,100 -2,400 Descending San Juan Center
12:59PM 19.4667 -65.5500 167° South 440 506 22,800 -2,460 Descending San Juan Center
01:00PM 19.3500 -65.5167 165° South 430 495 20,200 -2,340 Descending San Juan Center
01:01PM 19.2500 -65.5000 171° South 410 472 18,100 -2,340 Descending San Juan Center
01:02PM 19.1333 -65.4667 165° South 400 460 15,500 -2,520 Descending San Juan Center
01:03PM 19.0167 -65.4333 165° South 380 437 13,100 -2,280 Descending San Juan Center
01:04PM 18.9167 -65.4167 171° South 370 426 11,000 -1,080 Descending San Juan Center
01:05PM 18.8333 -65.4000 169° South 320 368 11,000 -360 Level San Juan Center
01:06PM 18.7500 -65.3667 159° South 280 322 10,300 -1,020 Descending San Juan Center
01:07PM 18.6833 -65.3333 155° Southeast 300 345 9,000 -1,320 Descending San Juan Center
01:08PM 18.6000 -65.3000 159° South 280 322 7,700 -1,440 Descending San Juan Center
01:09PM 18.5333 -65.2667 155° Southeast 280 322 6,200 -1,440 Descending San Juan Center
01:10PM 18.4667 -65.2333 155° Southeast 270 311 4,900 -1,440 Descending San Juan Center
01:11PM 18.4000 -65.2000 155° Southeast 260 299 3,400 -1,080 Descending San Juan Center
01:12PM 18.3333 -65.1833 167° South 250 288 2,800 -480 Descending San Juan Center
01:13PM 18.3333 -65.1167 90° East 200 230 2,500 -300 Descending San Juan Center